EGPH/EDI METAR and TAF weather

Enter ICAO airport designator
Station Type Date Time Source
EGPH METAR 2022/01/26 20:20 UTC NOAA

EGPH 262020Z 24021KT 9999 BKN013 10/08 Q1013


Station Type Date Time Source
EGPH Decoded METAR 2022/01/26 20:20 UTC NOAA

Edinburgh Airport, United Kingdom (EGPH) 55-57N 003-21W 0M
Jan 26, 2022 - 03:20 PM EST / 2022.01.26 2020 UTC
Wind: from the WSW (240 degrees) at 24 MPH (21 KT):0
Visibility: greater than 7 mile(s):0
Sky conditions: mostly cloudy
Temperature: 50 F (10 C)
Dew Point: 46 F (8 C)
Relative Humidity: 87%
Pressure (altimeter): 29.91 in. Hg (1013 hPa)
ob: EGPH 262020Z 24021KT 9999 BKN013 10/08 Q1013
cycle: 20

Station Type Date Time Source
EGPH TAF 2022/01/26 18:09 UTC NOAA

TAF TAF EGPH 261659Z 2618/2718 24018G30KT 9999 SCT010 BKN025
TEMPO 2618/2623 6000 -DZ BKN012 PROB40
TEMPO 2618/2624 25022G40KT PROB40
TEMPO 2618/2621 4000 DZRA BKN008
BECMG 2709/2712 30018G28KT
BECMG 2712/2715 28012KT

Example: see airport list